Time;durP1;ratioP1;P1;durP2;ratioP2;P2;SDS_P1;SDS_P2;PMS_P1;PMS_P2;Temp;Humidity;BMP_temperature;BMP_pressure;BME280_temperature;BME280_humidity;BME280_pressure;Samples;Min_cycle;Max_cycle;Signal;HPM_P1;HPM_P2
2021/12/10 00:01:39;;;;;;;;;0.00;0.00;14.10;99.90;;;;;;4901246;29;11061;-53
2021/12/10 00:04:11;;;;;;;;;1.50;1.00;14.10;99.90;;;;;;4909414;29;11071;-52
2021/12/10 00:06:53;;;;;;;;;2.00;2.00;14.10;99.90;;;;;;4904524;29;11169;-55
2021/12/10 00:09:31;;;;;;;;;2.25;2.25;14.10;99.90;;;;;;4912419;28;11426;-52
2021/12/10 00:12:14;;;;;;;;;3.25;3.00;14.10;99.90;;;;;;4905108;29;11141;-53
2021/12/10 00:14:45;;;;;;;;;1.00;1.00;14.10;99.90;;;;;;4908573;28;11103;-56
2021/12/10 00:17:17;;;;;;;;;2.50;2.50;14.10;99.90;;;;;;4909904;28;11139;-56
2021/12/10 00:19:54;;;;;;;;;1.00;0.00;14.10;99.90;;;;;;4908577;28;11147;-54
2021/12/10 00:22:24;;;;;;;;;1.25;1.25;14.10;99.90;;;;;;4890134;29;11177;-55
2021/12/10 00:24:56;;;;;;;;;0.00;0.00;14.10;99.90;;;;;;4894637;28;12271;-54
2021/12/10 00:27:32;;;;;;;;;2.00;2.00;14.10;99.90;;;;;;4913009;28;11225;-54
2021/12/10 00:30:10;;;;;;;;;1.00;1.00;14.10;99.90;;;;;;4912365;28;11295;-52
2021/12/10 00:32:45;;;;;;;;;3.50;2.50;14.10;99.90;;;;;;4917051;28;11244;-54
2021/12/10 00:35:24;;;;;;;;;2.00;2.00;14.00;99.90;;;;;;4895500;29;11531;-52
2021/12/10 00:37:54;;;;;;;;;0.50;0.50;14.00;99.90;;;;;;4898380;29;11223;-52
2021/12/10 00:40:26;;;;;;;;;1.75;1.75;14.00;99.90;;;;;;4893321;29;11279;-54
2021/12/10 00:42:58;;;;;;;;;2.25;1.00;14.00;99.90;;;;;;4888275;29;11272;-53
2021/12/10 00:45:29;;;;;;;;;1.00;1.00;14.00;99.90;;;;;;4889179;29;11399;-54
2021/12/10 00:48:02;;;;;;;;;1.00;1.00;14.00;99.90;;;;;;4890332;29;11172;-53
2021/12/10 00:50:49;;;;;;;;;1.50;1.50;14.00;99.90;;;;;;4881643;29;11178;-55
2021/12/10 00:53:20;;;;;;;;;2.75;2.75;14.00;99.90;;;;;;4874347;29;11418;-51
2021/12/10 00:55:53;;;;;;;;;1.00;1.00;14.00;99.90;;;;;;4887609;29;11187;-53
2021/12/10 00:58:25;;;;;;;;;1.00;1.00;14.00;99.90;;;;;;4891324;29;11212;-53
2021/12/10 01:00:59;;;;;;;;;3.00;3.00;14.00;99.90;;;;;;4885311;29;11021;-54
2021/12/10 01:03:37;;;;;;;;;2.75;2.75;14.00;99.90;;;;;;4892167;29;11263;-51
2021/12/10 01:06:10;;;;;;;;;0.50;0.50;14.00;99.90;;;;;;4887912;29;12443;-53
2021/12/10 01:08:44;;;;;;;;;1.25;1.25;14.00;99.90;;;;;;4888984;29;11575;-54
2021/12/10 01:11:37;;;;;;;;;2.00;2.00;13.90;99.90;;;;;;4873579;29;12282;-53
2021/12/10 01:14:19;;;;;;;;;1.00;1.00;13.90;99.90;;;;;;4891360;29;11479;-54
2021/12/10 01:25:41;;;;;;;;;2.00;0.25;13.90;99.90;;;;;;4888023;29;11796;-54
2021/12/10 01:28:12;;;;;;;;;3.00;1.00;13.90;99.90;;;;;;4885882;29;11236;-55
2021/12/10 01:30:44;;;;;;;;;2.00;1.25;13.90;99.90;;;;;;4889431;29;11199;-52
2021/12/10 01:33:18;;;;;;;;;2.00;2.00;13.90;99.90;;;;;;4886044;29;11073;-53
2021/12/10 01:35:54;;;;;;;;;4.00;2.75;13.80;99.90;;;;;;4884396;29;11210;-54
2021/12/10 01:38:26;;;;;;;;;1.75;1.75;13.80;99.90;;;;;;4888051;29;11387;-55
2021/12/10 01:41:00;;;;;;;;;2.00;2.00;13.80;99.90;;;;;;4889079;29;11433;-56
2021/12/10 01:43:34;;;;;;;;;2.75;2.75;13.80;99.90;;;;;;4870338;29;11604;-55
2021/12/10 01:46:11;;;;;;;;;1.00;1.00;13.80;99.90;;;;;;4875132;29;11023;-52
2021/12/10 01:48:48;;;;;;;;;3.25;2.50;13.80;99.90;;;;;;4892882;29;11568;-53
2021/12/10 01:51:23;;;;;;;;;2.00;2.00;13.80;99.90;;;;;;4885821;29;11563;-48
2021/12/10 01:53:56;;;;;;;;;3.50;2.00;13.70;99.90;;;;;;4889580;29;11568;-52
2021/12/10 01:56:30;;;;;;;;;3.75;2.25;13.80;99.90;;;;;;4886498;29;11541;-51
2021/12/10 01:59:03;;;;;;;;;1.00;1.00;13.80;99.90;;;;;;4897778;29;11475;-53
2021/12/10 02:01:40;;;;;;;;;2.25;2.25;13.70;99.90;;;;;;4892055;29;11586;-52
2021/12/10 02:04:17;;;;;;;;;2.00;2.00;13.70;99.90;;;;;;4897207;29;11440;-51
2021/12/10 02:06:47;;;;;;;;;1.75;1.75;13.70;99.90;;;;;;4887597;29;11642;-52
2021/12/10 02:09:20;;;;;;;;;3.50;3.50;13.70;99.90;;;;;;4890864;29;11576;-52
2021/12/10 02:11:52;;;;;;;;;3.00;3.00;13.70;99.90;;;;;;4877514;29;11554;-52
2021/12/10 02:14:24;;;;;;;;;2.50;2.50;13.60;99.90;;;;;;4887492;29;11606;-52
2021/12/10 02:16:59;;;;;;;;;2.50;2.50;13.60;99.90;;;;;;4889774;29;11204;-52
2021/12/10 02:19:30;;;;;;;;;2.50;2.50;13.60;99.90;;;;;;4886905;29;11569;-53
2021/12/10 02:22:03;;;;;;;;;3.00;2.75;13.60;99.90;;;;;;4887459;29;11463;-52
2021/12/10 02:24:34;;;;;;;;;2.25;2.25;13.70;99.90;;;;;;4887058;29;11580;-54
2021/12/10 02:27:07;;;;;;;;;2.00;2.00;13.60;99.90;;;;;;4877049;29;11631;-60
2021/12/10 02:29:41;;;;;;;;;0.50;0.50;13.60;99.90;;;;;;4889384;29;11348;-58
2021/12/10 02:32:12;;;;;;;;;3.50;1.00;13.60;99.90;;;;;;4891191;29;11675;-51
2021/12/10 02:34:44;;;;;;;;;3.00;2.50;13.60;99.90;;;;;;4893231;29;12312;-52
2021/12/10 02:37:16;;;;;;;;;3.00;2.00;13.60;99.90;;;;;;4892070;29;11614;-53
2021/12/10 02:39:47;;;;;;;;;2.00;2.00;13.50;99.90;;;;;;4889945;29;11577;-54
2021/12/10 02:42:17;;;;;;;;;3.75;2.00;13.50;99.90;;;;;;4888537;29;11446;-54
2021/12/10 02:44:49;;;;;;;;;3.00;3.00;13.50;99.90;;;;;;4875200;29;11650;-53
2021/12/10 02:47:20;;;;;;;;;2.00;2.00;13.50;99.90;;;;;;4889757;29;11618;-54
2021/12/10 02:49:51;;;;;;;;;3.50;2.00;13.50;99.90;;;;;;4887132;29;11429;-53
2021/12/10 02:52:24;;;;;;;;;4.00;4.00;13.40;99.90;;;;;;4890381;29;11448;-54
2021/12/10 02:54:57;;;;;;;;;3.50;3.50;13.40;99.90;;;;;;4892277;29;11456;-53
2021/12/10 02:57:28;;;;;;;;;3.50;3.50;13.40;99.90;;;;;;4893906;29;11607;-54
2021/12/10 02:59:58;;;;;;;;;3.50;3.00;13.40;99.90;;;;;;4879693;29;11573;-58
2021/12/10 03:02:29;;;;;;;;;3.00;3.00;13.30;99.90;;;;;;4872341;29;11467;-54
2021/12/10 03:05:01;;;;;;;;;2.75;2.75;13.20;99.90;;;;;;4888447;29;11599;-53
2021/12/10 03:07:32;;;;;;;;;3.00;3.00;13.20;99.90;;;;;;4892534;29;11476;-53
2021/12/10 03:10:05;;;;;;;;;2.25;2.25;13.20;99.90;;;;;;4886816;29;11584;-55
2021/12/10 03:12:36;;;;;;;;;2.50;2.50;13.10;99.90;;;;;;4893188;29;11545;-52
2021/12/10 03:15:11;;;;;;;;;3.50;3.00;13.10;99.90;;;;;;4893496;29;11449;-53
2021/12/10 03:17:42;;;;;;;;;2.50;2.50;13.00;99.90;;;;;;4890159;29;11601;-52
2021/12/10 03:20:15;;;;;;;;;6.25;4.00;13.10;99.90;;;;;;4849503;29;12297;-53
2021/12/10 03:22:46;;;;;;;;;3.50;3.50;13.00;99.90;;;;;;4890590;29;12142;-51
2021/12/10 03:25:18;;;;;;;;;3.00;3.00;13.00;99.90;;;;;;4887920;29;11659;-52
2021/12/10 03:27:50;;;;;;;;;4.50;4.50;13.00;99.90;;;;;;4892365;29;11617;-53
2021/12/10 03:30:26;;;;;;;;;4.00;4.00;13.00;99.90;;;;;;4886891;29;11753;-52
2021/12/10 03:32:57;;;;;;;;;5.50;5.50;13.00;99.90;;;;;;4887607;29;11486;-51
2021/12/10 03:35:41;;;;;;;;;6.50;6.50;13.00;99.90;;;;;;4884266;29;11446;-52
2021/12/10 03:38:17;;;;;;;;;10.00;9.00;12.90;99.90;;;;;;4888432;29;11494;-53
2021/12/10 03:40:48;;;;;;;;;9.75;9.00;12.80;99.90;;;;;;4891779;29;11485;-55
2021/12/10 03:43:19;;;;;;;;;9.50;9.50;12.80;99.90;;;;;;4893387;29;11639;-53
2021/12/10 03:45:53;;;;;;;;;8.50;8.50;12.80;99.90;;;;;;4890482;29;11522;-53
2021/12/10 03:48:29;;;;;;;;;8.50;8.50;12.80;99.90;;;;;;4887372;29;11624;-53
2021/12/10 03:51:03;;;;;;;;;10.00;8.75;12.70;99.90;;;;;;4889200;29;11645;-52
2021/12/10 03:53:33;;;;;;;;;6.75;6.75;12.70;99.90;;;;;;4894683;29;11649;-54
2021/12/10 03:56:09;;;;;;;;;7.00;7.00;12.60;99.90;;;;;;4899340;29;11622;-53
2021/12/10 03:58:40;;;;;;;;;7.75;7.00;12.60;99.90;;;;;;4895601;29;11608;-53
2021/12/10 04:01:12;;;;;;;;;5.00;5.00;12.60;99.90;;;;;;4893576;29;11644;-54
2021/12/10 04:03:45;;;;;;;;;6.25;6.00;12.60;99.90;;;;;;4892520;29;11505;-53
2021/12/10 04:06:16;;;;;;;;;6.50;5.00;12.60;99.90;;;;;;4885294;29;11750;-52
2021/12/10 04:08:49;;;;;;;;;6.25;5.00;12.60;99.90;;;;;;4888463;29;11611;-52
2021/12/10 04:11:21;;;;;;;;;6.00;6.00;12.50;99.90;;;;;;4887999;29;11679;-53
2021/12/10 04:13:53;;;;;;;;;7.50;7.50;12.50;99.90;;;;;;4876297;29;11679;-53
2021/12/10 04:16:27;;;;;;;;;2.00;0.50;12.60;99.90;;;;;;4890377;29;11789;-53
2021/12/10 04:19:01;;;;;;;;;7.25;6.25;12.60;99.90;;;;;;4889709;29;11637;-51
2021/12/10 04:21:39;;;;;;;;;10.00;8.25;12.50;99.90;;;;;;4886399;29;11627;-53
2021/12/10 04:24:14;;;;;;;;;8.25;8.25;12.50;99.90;;;;;;4887593;29;11696;-53
2021/12/10 04:26:49;;;;;;;;;12.00;9.00;12.50;99.90;;;;;;4888367;29;11552;-54
2021/12/10 04:29:20;;;;;;;;;8.75;8.75;12.50;99.90;;;;;;4875383;29;11568;-53
2021/12/10 04:31:54;;;;;;;;;15.50;14.00;12.50;99.90;;;;;;4887062;29;11607;-53
2021/12/10 04:34:25;;;;;;;;;11.50;11.50;12.50;99.90;;;;;;4887619;29;11611;-54
2021/12/10 04:37:00;;;;;;;;;17.00;17.00;12.40;99.90;;;;;;4883949;29;11776;-52
2021/12/10 04:39:33;;;;;;;;;17.50;17.50;12.40;99.90;;;;;;4887396;29;11661;-52
2021/12/10 04:42:06;;;;;;;;;15.25;15.25;12.40;99.90;;;;;;4890689;29;11534;-51
2021/12/10 04:44:38;;;;;;;;;16.00;16.00;12.40;99.90;;;;;;4892352;29;11054;-53
2021/12/10 04:47:09;;;;;;;;;21.75;20.50;12.40;99.90;;;;;;4895349;29;11780;-53
2021/12/10 04:49:40;;;;;;;;;16.25;16.00;12.40;99.90;;;;;;4892305;29;12307;-53
2021/12/10 04:52:10;;;;;;;;;14.00;14.00;12.30;99.90;;;;;;4885079;29;11737;-54
2021/12/10 04:54:42;;;;;;;;;15.00;15.00;12.30;99.90;;;;;;4896287;29;11555;-53
2021/12/10 04:57:12;;;;;;;;;12.25;12.25;12.20;99.90;;;;;;4897673;29;11526;-54
2021/12/10 04:59:44;;;;;;;;;11.50;9.25;12.20;99.90;;;;;;4889262;29;12694;-51
2021/12/10 05:02:18;;;;;;;;;11.50;11.50;12.20;99.90;;;;;;4897530;29;11769;-52
2021/12/10 05:04:48;;;;;;;;;10.75;10.75;12.20;99.90;;;;;;4889060;29;11544;-53
2021/12/10 05:07:19;;;;;;;;;11.00;11.00;12.20;99.90;;;;;;4890282;29;11554;-54
2021/12/10 05:09:50;;;;;;;;;8.33;8.33;12.20;99.90;;;;;;4895044;29;12266;-52
2021/12/10 05:12:20;;;;;;;;;12.00;9.67;12.10;99.90;;;;;;4892276;29;8832;-54
2021/12/10 05:14:59;;;;;;;;;10.67;10.67;12.10;99.90;;;;;;4887404;29;8873;-51
2021/12/10 05:17:33;;;;;;;;;12.67;12.67;12.00;99.90;;;;;;4894446;29;11548;-53
2021/12/10 05:20:12;;;;;;;;;16.67;16.67;11.90;99.90;;;;;;4877587;29;9021;-50
2021/12/10 05:22:45;;;;;;;;;20.33;20.33;12.00;99.90;;;;;;4892237;29;9226;-54
2021/12/10 05:25:16;;;;;;;;;27.67;27.67;12.00;99.90;;;;;;4846577;29;8866;-52
2021/12/10 05:27:48;;;;;;;;;15.33;15.33;12.00;99.90;;;;;;4889958;29;8873;-52
2021/12/10 05:30:23;;;;;;;;;15.67;14.00;11.90;99.90;;;;;;4872294;29;9467;-51
2021/12/10 05:32:53;;;;;;;;;24.67;23.33;11.80;99.90;;;;;;4877337;29;8934;-49
2021/12/10 05:35:24;;;;;;;;;20.00;20.00;11.90;99.90;;;;;;4886784;29;8853;-51
2021/12/10 05:37:55;;;;;;;;;14.33;12.33;11.80;99.90;;;;;;4875234;29;8879;-50
2021/12/10 05:40:28;;;;;;;;;9.33;9.33;11.80;99.90;;;;;;4891080;29;8872;-47
2021/12/10 05:42:58;;;;;;;;;4.50;4.00;11.80;99.90;;;;;;4889305;29;8870;-54
2021/12/10 05:45:31;;;;;;;;;9.67;6.33;11.80;99.90;;;;;;4889796;29;12239;-52
2021/12/10 05:48:02;;;;;;;;;9.00;6.67;11.80;99.90;;;;;;4890364;29;8857;-50
2021/12/10 05:50:34;;;;;;;;;7.67;7.67;11.80;99.90;;;;;;4872676;29;11593;-51
2021/12/10 05:53:06;;;;;;;;;7.00;6.00;11.80;99.90;;;;;;4887955;29;8867;-51
2021/12/10 05:55:39;;;;;;;;;7.00;7.00;11.80;99.90;;;;;;4876466;29;11499;-57
2021/12/10 05:58:11;;;;;;;;;14.00;12.00;11.70;99.90;;;;;;4892046;29;8871;-53
2021/12/10 06:00:51;;;;;;;;;19.00;18.33;11.70;99.90;;;;;;4892035;29;8884;-54
2021/12/10 06:03:25;;;;;;;;;25.00;25.00;11.70;99.90;;;;;;4895895;29;8920;-53
2021/12/10 06:05:55;;;;;;;;;24.00;24.00;11.70;99.90;;;;;;4889815;29;8876;-51
2021/12/10 06:08:26;;;;;;;;;24.33;24.33;11.60;99.90;;;;;;4899060;29;8862;-54
2021/12/10 06:10:59;;;;;;;;;40.67;36.33;11.60;99.90;;;;;;4897885;29;8867;-50
2021/12/10 06:13:30;;;;;;;;;41.00;35.67;11.60;99.90;;;;;;4885127;29;8871;-51
2021/12/10 06:16:02;;;;;;;;;46.25;41.00;11.50;99.90;;;;;;4894692;29;9721;-48
2021/12/10 06:18:34;;;;;;;;;56.00;47.25;11.50;99.90;;;;;;4895298;29;8868;-50
2021/12/10 06:21:06;;;;;;;;;65.75;56.00;11.50;99.90;;;;;;4894189;29;8881;-51
2021/12/10 06:23:37;;;;;;;;;83.00;77.75;11.50;99.90;;;;;;4893178;29;8843;-53
2021/12/10 06:26:08;;;;;;;;;93.00;92.25;11.50;99.90;;;;;;4895758;29;8866;-52
2021/12/10 06:28:45;;;;;;;;;98.75;98.25;11.50;99.90;;;;;;4898454;29;8847;-49
2021/12/10 06:31:20;;;;;;;;;71.25;62.75;11.50;99.90;;;;;;4895541;29;8939;-50
2021/12/10 06:33:51;;;;;;;;;24.67;24.33;11.50;99.90;;;;;;4879428;29;11582;-53
2021/12/10 06:36:23;;;;;;;;;26.67;24.00;11.50;99.90;;;;;;4892198;29;8910;-50
2021/12/10 06:38:55;;;;;;;;;14.00;14.00;11.30;99.90;;;;;;4894459;29;8887;-53
2021/12/10 06:41:25;;;;;;;;;12.00;12.00;11.30;99.90;;;;;;4897661;29;8883;-48
2021/12/10 06:43:57;;;;;;;;;11.25;11.00;11.30;99.90;;;;;;4878525;29;11546;-52
2021/12/10 06:46:28;;;;;;;;;12.75;12.75;11.40;99.90;;;;;;4897748;29;11645;-52
2021/12/10 06:48:58;;;;;;;;;13.50;12.75;11.20;99.90;;;;;;4897549;29;11577;-52
2021/12/10 06:51:29;;;;;;;;;11.75;11.50;11.20;99.90;;;;;;4901537;29;11701;-54
2021/12/10 06:54:02;;;;;;;;;15.25;15.25;11.30;99.90;;;;;;4891364;29;11695;-51
2021/12/10 06:56:35;;;;;;;;;15.00;14.25;11.20;99.90;;;;;;4876005;29;11542;-52
2021/12/10 06:59:08;;;;;;;;;10.00;10.00;11.10;99.90;;;;;;4895570;29;11718;-49
2021/12/10 07:01:43;;;;;;;;;12.00;10.00;11.00;99.90;;;;;;4883263;29;11541;-51
2021/12/10 07:04:15;;;;;;;;;8.75;8.75;11.00;99.90;;;;;;4891770;29;11651;-51
2021/12/10 07:06:47;;;;;;;;;10.75;10.75;11.00;99.90;;;;;;4890265;29;11646;-51
2021/12/10 07:09:25;;;;;;;;;7.25;7.25;11.00;99.90;;;;;;4891111;29;11533;-52
2021/12/10 07:11:55;;;;;;;;;10.00;10.00;11.10;99.90;;;;;;4898461;29;11444;-52
2021/12/10 07:14:26;;;;;;;;;8.50;8.50;11.00;99.90;;;;;;4880383;29;11740;-53
2021/12/10 07:16:58;;;;;;;;;6.50;6.50;11.00;99.90;;;;;;4893843;29;12255;-52
2021/12/10 07:19:29;;;;;;;;;7.00;7.00;11.10;99.90;;;;;;4889803;29;11471;-53
2021/12/10 07:22:00;;;;;;;;;12.75;11.00;11.00;99.90;;;;;;4889606;29;11623;-54
2021/12/10 07:24:31;;;;;;;;;11.75;10.50;11.00;99.90;;;;;;4890901;29;11687;-53
2021/12/10 07:27:01;;;;;;;;;12.00;12.00;11.00;99.90;;;;;;4874777;29;11670;-52
2021/12/10 07:29:31;;;;;;;;;8.25;8.25;11.00;99.90;;;;;;4892943;29;11577;-51
2021/12/10 07:32:03;;;;;;;;;11.75;11.75;10.90;99.90;;;;;;4890678;29;11676;-51
2021/12/10 07:34:34;;;;;;;;;13.75;13.75;10.90;99.90;;;;;;4874844;29;11693;-50
2021/12/10 07:37:07;;;;;;;;;13.25;13.25;11.00;99.90;;;;;;4886870;29;11585;-51
2021/12/10 07:39:39;;;;;;;;;12.75;12.75;10.90;99.90;;;;;;4895763;29;11547;-52
2021/12/10 07:42:11;;;;;;;;;17.75;17.75;10.80;99.90;;;;;;4890774;29;11531;-52
2021/12/10 07:44:43;;;;;;;;;15.50;15.00;10.70;99.90;;;;;;4869706;29;11584;-53
2021/12/10 07:47:14;;;;;;;;;12.50;12.50;10.70;99.90;;;;;;4890321;29;12541;-51
2021/12/10 07:49:45;;;;;;;;;18.75;16.25;10.70;99.90;;;;;;4890996;29;11545;-50
2021/12/10 07:52:22;;;;;;;;;12.00;12.00;10.60;99.90;;;;;;4889723;29;11690;-52
2021/12/10 07:54:52;;;;;;;;;14.75;14.75;10.60;99.90;;;;;;4891773;29;11693;-53
2021/12/10 07:57:25;;;;;;;;;13.50;12.25;10.70;99.90;;;;;;4874124;29;11577;-51
2021/12/10 07:59:56;;;;;;;;;13.00;12.25;10.70;99.90;;;;;;4894935;29;11590;-51
2021/12/10 08:02:27;;;;;;;;;12.75;11.25;10.60;99.90;;;;;;4885884;29;11662;-50
2021/12/10 08:04:57;;;;;;;;;4.00;4.00;10.50;99.90;;;;;;4886638;29;11549;-52
2021/12/10 08:07:27;;;;;;;;;8.00;8.00;10.40;99.90;;;;;;4887369;29;12589;-51
2021/12/10 08:09:59;;;;;;;;;10.00;7.25;10.40;99.90;;;;;;4891727;29;11658;-51
2021/12/10 08:12:30;;;;;;;;;8.25;8.25;10.30;99.90;;;;;;4891991;29;11784;-51
2021/12/10 08:15:02;;;;;;;;;3.75;3.75;10.30;99.90;;;;;;4874777;29;11499;-50
2021/12/10 08:17:34;;;;;;;;;7.00;5.75;10.30;99.90;;;;;;4892052;29;11667;-51
2021/12/10 08:20:08;;;;;;;;;6.25;6.25;10.20;99.90;;;;;;4885614;29;11531;-52
2021/12/10 08:22:38;;;;;;;;;5.00;5.00;10.30;99.90;;;;;;4886944;29;11789;-51
2021/12/10 08:25:10;;;;;;;;;6.00;6.00;10.30;99.90;;;;;;4886971;29;12332;-52
2021/12/10 08:27:43;;;;;;;;;5.00;5.00;10.40;99.90;;;;;;4887666;29;11463;-50
2021/12/10 08:30:18;;;;;;;;;6.50;6.50;10.40;99.90;;;;;;4886381;29;11509;-53
2021/12/10 08:32:50;;;;;;;;;6.00;6.00;10.40;99.90;;;;;;4872292;29;12345;-51
2021/12/10 08:35:23;;;;;;;;;5.75;5.75;10.40;99.90;;;;;;4858897;29;11661;-51
2021/12/10 08:37:55;;;;;;;;;2.00;2.00;10.40;99.90;;;;;;4860583;29;11637;-50
2021/12/10 08:40:37;;;;;;;;;6.25;6.25;10.30;99.90;;;;;;4856411;29;11593;-51
2021/12/10 08:43:08;;;;;;;;;5.00;5.00;10.30;99.90;;;;;;4856876;29;11653;-52
2021/12/10 08:45:41;;;;;;;;;8.75;6.00;10.30;99.90;;;;;;4859209;29;12425;-50
2021/12/10 08:48:12;;;;;;;;;8.00;7.25;10.30;99.90;;;;;;4856367;29;11635;-51
2021/12/10 08:50:43;;;;;;;;;4.75;2.75;10.30;99.90;;;;;;4853189;29;12392;-52
2021/12/10 08:53:15;;;;;;;;;8.75;6.00;10.30;99.90;;;;;;4872321;29;12326;-54
2021/12/10 08:55:50;;;;;;;;;6.00;6.00;10.30;99.90;;;;;;4857915;29;11674;-52
2021/12/10 08:58:20;;;;;;;;;9.00;9.00;10.30;99.90;;;;;;4858100;29;11838;-54
2021/12/10 09:00:58;;;;;;;;;5.25;5.25;10.20;99.90;;;;;;4853868;29;11656;-54
2021/12/10 09:03:48;;;;;;;;;6.25;5.00;10.20;99.90;;;;;;4856483;29;11572;-54
2021/12/10 09:06:22;;;;;;;;;8.25;7.50;10.20;99.90;;;;;;4856475;29;11634;-54
2021/12/10 09:08:54;;;;;;;;;9.50;9.50;10.20;99.90;;;;;;4856949;29;11636;-53
2021/12/10 09:11:28;;;;;;;;;15.75;13.00;10.10;99.90;;;;;;4855636;29;11691;-52
2021/12/10 09:14:20;;;;;;;;;9.50;9.50;10.10;99.90;;;;;;4858326;29;11720;-53
2021/12/10 09:16:55;;;;;;;;;5.00;5.00;10.10;99.90;;;;;;4858369;29;11844;-51
2021/12/10 09:19:26;;;;;;;;;4.00;4.00;10.10;99.90;;;;;;4857935;29;11713;-54
2021/12/10 09:21:57;;;;;;;;;5.00;5.00;10.10;99.90;;;;;;4857999;29;11576;-53
2021/12/10 09:24:29;;;;;;;;;7.00;7.00;10.10;99.90;;;;;;4859561;29;11615;-52
2021/12/10 09:27:00;;;;;;;;;6.50;6.50;10.10;99.90;;;;;;4859039;29;11631;-51
2021/12/10 09:29:37;;;;;;;;;10.00;8.50;10.10;99.90;;;;;;4858870;29;11634;-54
2021/12/10 09:32:10;;;;;;;;;12.00;12.00;10.00;99.90;;;;;;4855451;29;11667;-51
2021/12/10 09:34:43;;;;;;;;;12.75;12.75;10.00;99.90;;;;;;4867736;29;11676;-52
2021/12/10 09:37:22;;;;;;;;;14.00;14.00;10.00;99.90;;;;;;4879983;29;11531;-51
2021/12/10 09:39:53;;;;;;;;;12.50;12.50;9.90;99.90;;;;;;4891744;29;11578;-55
2021/12/10 09:42:25;;;;;;;;;16.75;13.50;9.80;99.90;;;;;;4872158;29;11669;-48
2021/12/10 09:44:57;;;;;;;;;13.50;13.50;9.90;99.90;;;;;;4889796;29;11674;-53
2021/12/10 09:47:29;;;;;;;;;12.00;12.00;9.90;99.90;;;;;;4883750;29;12332;-53
2021/12/10 09:50:00;;;;;;;;;9.00;7.50;9.90;99.90;;;;;;4887666;29;11652;-51
2021/12/10 09:52:31;;;;;;;;;6.00;6.00;9.90;99.90;;;;;;4872423;29;11642;-52
2021/12/10 09:55:04;;;;;;;;;3.75;3.75;9.80;99.90;;;;;;4889470;29;11641;-51
2021/12/10 09:57:35;;;;;;;;;5.50;5.50;9.80;99.90;;;;;;4873678;29;11511;-52
2021/12/10 10:00:34;;;;;;;;;8.50;8.50;9.80;99.90;;;;;;4888639;29;11492;-49
2021/12/10 10:03:07;;;;;;;;;4.50;3.00;9.90;99.90;;;;;;4889619;29;11495;-50
2021/12/10 10:05:43;;;;;;;;;6.25;6.25;10.00;99.90;;;;;;4889483;29;11774;-51
2021/12/10 10:08:22;;;;;;;;;5.75;5.75;10.00;99.90;;;;;;4888998;29;11526;-50
2021/12/10 10:11:02;;;;;;;;;3.00;3.00;9.90;99.90;;;;;;4888405;29;11615;-52
2021/12/10 10:13:38;;;;;;;;;2.00;2.00;9.90;99.90;;;;;;4893461;29;11649;-51
2021/12/10 10:16:10;;;;;;;;;5.00;3.25;9.90;99.90;;;;;;4888410;29;11602;-52
2021/12/10 10:18:42;;;;;;;;;3.50;3.50;9.90;99.90;;;;;;4890681;29;11542;-52
2021/12/10 10:21:27;;;;;;;;;4.00;4.00;9.90;99.90;;;;;;4888325;29;11754;-52
2021/12/10 10:23:58;;;;;;;;;2.75;2.75;9.80;99.90;;;;;;4892759;29;11541;-52
2021/12/10 10:26:34;;;;;;;;;3.25;3.25;9.80;99.90;;;;;;4883795;29;11474;-53
2021/12/10 10:29:17;;;;;;;;;1.00;1.00;9.80;99.90;;;;;;4874608;29;11543;-52
2021/12/10 10:31:59;;;;;;;;;3.00;3.00;9.80;99.90;;;;;;4881191;29;11493;-54
2021/12/10 10:34:30;;;;;;;;;4.25;3.50;9.80;99.90;;;;;;4896566;29;11632;-53
2021/12/10 10:37:01;;;;;;;;;4.00;4.00;9.80;99.90;;;;;;4867156;29;11511;-53
2021/12/10 10:39:36;;;;;;;;;2.75;2.75;9.80;99.90;;;;;;4893256;29;11662;-52
2021/12/10 10:42:14;;;;;;;;;4.75;4.00;9.80;99.90;;;;;;4885389;29;12242;-53
2021/12/10 10:45:00;;;;;;;;;6.25;4.00;9.80;99.90;;;;;;4884228;29;11770;-55
2021/12/10 10:47:30;;;;;;;;;4.25;4.25;9.80;99.90;;;;;;4890708;29;12782;-53
2021/12/10 10:50:12;;;;;;;;;4.75;4.75;9.80;99.90;;;;;;4885845;29;11586;-51
2021/12/10 10:52:56;;;;;;;;;5.00;3.00;9.80;99.90;;;;;;4889853;29;11508;-52
2021/12/10 10:55:38;;;;;;;;;2.00;2.00;9.80;99.90;;;;;;4888524;29;11499;-51
2021/12/10 10:58:12;;;;;;;;;3.00;3.00;9.70;99.90;;;;;;4890949;29;11649;-52
2021/12/10 11:01:03;;;;;;;;;3.00;3.00;9.70;99.90;;;;;;4894033;29;11495;-52
2021/12/10 11:04:03;;;;;;;;;3.00;3.00;9.60;99.90;;;;;;4897384;29;12469;-54
2021/12/10 11:06:41;;;;;;;;;2.00;2.00;9.70;99.90;;;;;;4886757;29;11587;-52
2021/12/10 11:09:15;;;;;;;;;3.00;3.00;9.70;99.90;;;;;;4898040;29;11458;-53
2021/12/10 11:11:53;;;;;;;;;3.75;3.75;9.70;99.90;;;;;;4885328;29;11505;-53
2021/12/10 11:14:58;;;;;;;;;3.00;3.00;9.70;99.90;;;;;;4892980;29;11636;-53
2021/12/10 11:17:57;;;;;;;;;3.00;3.00;9.60;99.90;;;;;;4887885;29;11500;-52
2021/12/10 11:20:35;;;;;;;;;5.00;5.00;9.60;99.90;;;;;;4878821;29;11564;-51
2021/12/10 11:23:09;;;;;;;;;3.75;3.75;9.60;99.90;;;;;;4878421;29;11487;-54
2021/12/10 11:25:50;;;;;;;;;5.00;4.00;9.60;99.90;;;;;;4877902;29;11504;-53
2021/12/10 11:28:33;;;;;;;;;5.25;5.25;9.60;99.90;;;;;;4893060;29;11729;-52
2021/12/10 11:31:11;;;;;;;;;3.00;3.00;9.60;99.90;;;;;;4873168;29;11536;-53
2021/12/10 11:33:48;;;;;;;;;8.50;5.75;9.70;99.90;;;;;;4889491;29;11531;-52
2021/12/10 11:36:23;;;;;;;;;4.75;4.75;9.60;99.90;;;;;;4869359;29;11639;-53
2021/12/10 11:38:58;;;;;;;;;3.75;3.75;9.60;99.90;;;;;;4871610;29;11700;-53
2021/12/10 11:41:31;;;;;;;;;4.00;4.00;9.60;99.90;;;;;;4892792;29;11678;-53
2021/12/10 11:44:44;;;;;;;;;5.00;5.00;9.60;99.90;;;;;;4892582;29;11638;-53
2021/12/10 11:47:38;;;;;;;;;3.00;3.00;9.60;99.90;;;;;;4888066;29;11950;-53
2021/12/10 11:50:21;;;;;;;;;4.50;3.75;9.60;99.90;;;;;;4890036;29;11777;-53
2021/12/10 11:53:20;;;;;;;;;8.00;4.00;9.60;99.90;;;;;;4888404;29;11548;-52
2021/12/10 11:56:01;;;;;;;;;3.00;3.00;9.60;99.90;;;;;;4874944;29;11543;-52
2021/12/10 11:58:32;;;;;;;;;6.00;6.00;9.50;99.90;;;;;;4896030;29;11592;-52
2021/12/10 12:01:03;;;;;;;;;5.50;5.50;9.60;99.90;;;;;;4892611;29;11510;-52
2021/12/10 12:03:37;;;;;;;;;4.50;4.50;9.50;99.90;;;;;;4895076;29;11524;-52
2021/12/10 12:06:08;;;;;;;;;5.25;4.50;9.50;99.90;;;;;;4891514;29;11628;-52
2021/12/10 12:08:39;;;;;;;;;3.25;3.25;9.50;99.90;;;;;;4895238;29;11662;-53
2021/12/10 12:11:10;;;;;;;;;5.00;4.00;9.50;99.90;;;;;;4888693;29;12207;-52
2021/12/10 12:13:58;;;;;;;;;6.00;6.00;9.50;99.90;;;;;;4896526;29;11653;-52
2021/12/10 12:16:28;;;;;;;;;4.25;3.25;9.50;99.90;;;;;;4887915;29;11497;-51
2021/12/10 12:19:04;;;;;;;;;5.25;5.25;9.50;99.90;;;;;;4881345;29;11505;-52
2021/12/10 12:27:12;;;;;;;;;5.00;5.00;9.40;99.90;;;;;;4871881;29;11655;-52
2021/12/10 12:30:06;;;;;;;;;4.75;4.75;9.40;99.90;;;;;;4895029;29;11480;-51
2021/12/10 12:32:58;;;;;;;;;4.50;4.50;9.40;99.90;;;;;;4886540;29;11621;-54
2021/12/10 12:35:33;;;;;;;;;4.75;4.75;9.40;99.90;;;;;;4884784;29;11574;-52
2021/12/10 12:38:21;;;;;;;;;5.25;5.25;9.40;99.90;;;;;;4872609;29;11461;-52
2021/12/10 12:41:20;;;;;;;;;5.00;4.75;9.40;99.90;;;;;;4887658;29;11616;-52
2021/12/10 12:44:12;;;;;;;;;4.75;4.25;9.40;99.90;;;;;;4888958;29;11776;-52
2021/12/10 12:47:19;;;;;;;;;4.00;3.75;9.30;99.90;;;;;;4878156;29;11546;-53
2021/12/10 12:49:56;;;;;;;;;2.50;2.50;9.40;99.90;;;;;;4889166;29;11625;-51
2021/12/10 12:52:29;;;;;;;;;4.00;4.00;9.30;99.90;;;;;;4891748;29;11474;-53
2021/12/10 12:55:29;;;;;;;;;2.00;2.00;9.30;99.90;;;;;;4891229;29;11681;-52
2021/12/10 12:58:14;;;;;;;;;4.25;4.25;9.30;99.90;;;;;;4886683;29;11647;-52
2021/12/10 13:01:13;;;;;;;;;3.00;3.00;9.30;99.90;;;;;;4895156;29;11613;-51
2021/12/10 13:03:52;;;;;;;;;3.00;3.00;9.20;99.90;;;;;;4890721;29;11604;-49
2021/12/10 13:06:54;;;;;;;;;4.50;4.50;9.20;99.90;;;;;;4891123;29;11526;-52
2021/12/10 13:09:37;;;;;;;;;3.00;3.00;9.20;99.90;;;;;;4893245;29;13603;-50
2021/12/10 13:13:07;;;;;;;;;3.75;3.75;9.20;99.90;;;;;;4891201;29;11594;-51
2021/12/10 13:15:28;;;;;;;;;3.50;3.50;9.20;99.90;;;;;;4884721;29;11475;-50
2021/12/10 13:18:04;;;;;;;;;3.75;3.75;9.20;99.90;;;;;;4887617;29;11556;-53
2021/12/10 13:20:40;;;;;;;;;3.75;3.50;9.10;99.90;;;;;;4890031;29;11514;-52
2021/12/10 13:23:15;;;;;;;;;2.00;0.25;9.10;99.90;;;;;;4885395;29;11546;-53
2021/12/10 13:25:50;;;;;;;;;4.00;4.00;9.00;99.90;;;;;;4871139;29;11617;-50
2021/12/10 13:28:21;;;;;;;;;4.00;3.00;9.10;99.90;;;;;;4872982;29;11491;-52
2021/12/10 13:30:58;;;;;;;;;2.75;2.75;9.10;99.90;;;;;;4893138;29;11550;-53
2021/12/10 13:33:32;;;;;;;;;3.00;3.00;9.20;99.90;;;;;;4894062;29;11651;-52
2021/12/10 13:36:05;;;;;;;;;2.75;2.75;9.10;99.90;;;;;;4892452;29;11531;-53
2021/12/10 13:38:38;;;;;;;;;4.00;4.00;9.00;99.90;;;;;;4890771;29;11494;-49
2021/12/10 13:41:12;;;;;;;;;4.00;4.00;9.00;99.90;;;;;;4878750;29;12317;-53